createdAt,value
2023-04-20T00:00:11.733Z,2.45
2023-04-20T00:02:40.003Z,2.13
2023-04-20T00:05:08.292Z,2.50
2023-04-20T00:07:35.962Z,2.25
2023-04-20T00:10:04.353Z,2.88
2023-04-20T00:12:31.479Z,2.47
2023-04-20T00:15:01.207Z,2.75
2023-04-20T00:17:28.354Z,2.45
2023-04-20T00:19:55.545Z,1.92
2023-04-20T00:22:22.672Z,2.55
2023-04-20T00:24:49.788Z,2.50
2023-04-20T00:27:16.927Z,2.13
2023-04-20T00:29:44.059Z,2.08
2023-04-20T00:32:11.356Z,1.90
2023-04-20T00:34:38.555Z,2.45
2023-04-20T00:37:06.357Z,1.77
2023-04-20T00:39:33.458Z,2.15
2023-04-20T00:42:08.036Z,2.13
2023-04-20T00:44:35.481Z,2.10
2023-04-20T00:47:02.762Z,2.35
2023-04-20T00:49:30.954Z,1.73
2023-04-20T00:51:59.546Z,1.73
2023-04-20T00:54:28.502Z,2.05
2023-04-20T00:56:58.200Z,1.80
2023-04-20T00:59:25.517Z,1.95
2023-04-20T01:01:52.741Z,1.92
2023-04-20T01:04:20.624Z,2.17
2023-04-20T01:06:47.828Z,1.98
2023-04-20T01:09:15.201Z,2.05
2023-04-20T01:11:42.507Z,1.85
2023-04-20T01:14:09.637Z,1.85
2023-04-20T01:16:37.011Z,1.80
2023-04-20T01:19:04.581Z,1.90
2023-04-20T01:21:32.319Z,1.92
2023-04-20T01:23:59.484Z,1.63
2023-04-20T01:26:26.919Z,1.92
2023-04-20T01:28:54.161Z,1.98
2023-04-20T01:31:21.367Z,1.77
2023-04-20T01:33:49.037Z,1.65
2023-04-20T01:36:16.330Z,2.10
2023-04-20T01:38:43.518Z,1.90
2023-04-20T01:41:10.846Z,1.88
2023-04-20T01:43:39.418Z,1.80
2023-04-20T01:46:07.274Z,2.05
2023-04-20T01:48:34.948Z,1.60
2023-04-20T01:51:02.283Z,1.65
2023-04-20T01:53:29.458Z,1.70
2023-04-20T01:55:56.731Z,1.23
2023-04-20T01:58:23.945Z,1.75
2023-04-20T02:00:51.086Z,2.03
2023-04-20T02:03:18.351Z,1.55
2023-04-20T02:05:45.596Z,1.90
2023-04-20T02:08:12.733Z,1.70
2023-04-20T02:10:39.879Z,1.67
2023-04-20T02:13:06.947Z,1.45
2023-04-20T02:15:34.089Z,1.60
2023-04-20T02:18:01.388Z,1.73
2023-04-20T02:20:28.619Z,1.70
2023-04-20T02:22:55.808Z,1.70
2023-04-20T02:25:22.905Z,1.50
2023-04-20T02:27:50.129Z,2.50
2023-04-20T02:30:17.249Z,1.60
2023-04-20T02:32:44.642Z,1.75
2023-04-20T02:35:12.571Z,2.17
2023-04-20T02:37:39.672Z,1.48
2023-04-20T02:40:08.707Z,2.80
2023-04-20T02:42:35.846Z,1.60
2023-04-20T02:45:03.124Z,1.55
2023-04-20T02:47:30.372Z,1.42
2023-04-20T02:49:57.589Z,1.23
2023-04-20T02:52:25.178Z,1.98
2023-04-20T02:54:52.359Z,1.80
2023-04-20T02:57:19.566Z,1.30
2023-04-20T02:59:46.703Z,1.60
2023-04-20T03:02:13.968Z,1.65
2023-04-20T03:04:41.216Z,1.50
2023-04-20T03:07:09.928Z,1.75
2023-04-20T03:09:37.514Z,1.30
2023-04-20T03:12:05.431Z,1.67
2023-04-20T03:14:32.611Z,1.63
2023-04-20T03:16:59.887Z,1.23
2023-04-20T03:19:27.042Z,1.40
2023-04-20T03:21:54.153Z,1.52
2023-04-20T03:24:22.395Z,1.60
2023-04-20T03:26:49.553Z,1.48
2023-04-20T03:29:16.926Z,1.20
2023-04-20T03:31:44.417Z,1.30
2023-04-20T03:34:11.549Z,1.13
2023-04-20T03:36:39.223Z,1.52
2023-04-20T03:39:06.524Z,1.77
2023-04-20T03:41:33.649Z,1.30
2023-04-20T03:44:01.007Z,1.70
2023-04-20T03:46:28.689Z,1.08
2023-04-20T03:48:55.851Z,1.42
2023-04-20T03:51:22.923Z,1.77
2023-04-20T03:53:50.042Z,0.95
2023-04-20T03:56:17.143Z,1.60
2023-04-20T03:58:44.314Z,1.40
2023-04-20T04:01:13.485Z,1.02
2023-04-20T04:03:40.907Z,2.13
2023-04-20T04:06:08.289Z,1.60
2023-04-20T04:08:35.404Z,1.05
2023-04-20T04:11:02.847Z,3.72
2023-04-20T04:13:29.983Z,1.40
2023-04-20T04:15:57.126Z,1.13
2023-04-20T04:18:24.229Z,1.67
2023-04-20T04:20:51.776Z,1.70
2023-04-20T04:23:18.881Z,1.45
2023-04-20T04:25:46.272Z,1.40
2023-04-20T04:28:14.915Z,1.38
2023-04-20T04:30:42.309Z,1.52
2023-04-20T04:33:10.459Z,1.02
2023-04-20T04:35:38.176Z,1.63
2023-04-20T04:38:05.278Z,1.33
2023-04-20T04:40:33.792Z,1.60
2023-04-20T04:43:00.952Z,1.73
2023-04-20T04:45:28.668Z,1.60
2023-04-20T04:47:57.397Z,1.70
2023-04-20T04:50:24.730Z,1.50
2023-04-20T04:52:51.854Z,1.60
2023-04-20T04:55:19.018Z,1.65
2023-04-20T04:57:46.110Z,1.63
2023-04-20T05:00:14.077Z,1.60
2023-04-20T05:02:41.470Z,1.48
2023-04-20T05:05:10.030Z,1.40
2023-04-20T05:07:38.643Z,1.88
2023-04-20T05:10:07.021Z,2.85
2023-04-20T05:12:34.262Z,2.33
2023-04-20T05:15:01.408Z,2.35
2023-04-20T05:17:28.801Z,1.90
2023-04-20T05:19:56.050Z,2.03
2023-04-20T05:22:23.225Z,2.17
2023-04-20T05:24:50.406Z,5.43
2023-04-20T05:27:17.752Z,1.88
2023-04-20T05:29:45.019Z,2.42
2023-04-20T05:32:12.322Z,2.72
2023-04-20T05:34:39.570Z,3.17
2023-04-20T05:37:06.756Z,2.15
2023-04-20T05:39:33.976Z,2.35
2023-04-20T05:42:01.867Z,2.33
2023-04-20T05:44:29.083Z,2.67
2023-04-20T05:46:57.064Z,2.83
2023-04-20T05:49:24.152Z,2.22
2023-04-20T05:51:51.582Z,2.58
2023-04-20T05:54:18.775Z,2.42
2023-04-20T05:56:45.911Z,2.30
2023-04-20T05:59:13.194Z,2.10
2023-04-20T06:01:40.364Z,3.92
2023-04-20T06:04:07.770Z,5.00
2023-04-20T06:06:35.103Z,2.83
2023-04-20T06:09:02.289Z,2.90
2023-04-20T06:11:30.413Z,2.85
2023-04-20T06:13:58.149Z,3.83
2023-04-20T06:16:25.802Z,3.22
2023-04-20T06:18:53.013Z,4.57
2023-04-20T06:21:20.362Z,3.13
2023-04-20T06:23:47.851Z,2.95
2023-04-20T06:26:15.261Z,3.13
2023-04-20T06:28:43.243Z,4.43
2023-04-20T06:31:10.405Z,4.35
2023-04-20T06:33:37.583Z,2.83
2023-04-20T06:36:08.367Z,3.42
2023-04-20T06:38:35.962Z,3.80
2023-04-20T06:41:03.540Z,3.60
2023-04-20T06:43:31.195Z,3.08
2023-04-20T06:45:58.422Z,2.83
2023-04-20T06:48:31.975Z,2.88
2023-04-20T06:51:00.709Z,4.15
2023-04-20T06:53:27.862Z,3.13
2023-04-20T06:55:55.866Z,2.95
2023-04-20T06:58:23.060Z,6.20
2023-04-20T07:00:50.409Z,3.97
2023-04-20T07:03:19.536Z,3.10
2023-04-20T07:05:46.958Z,3.50
2023-04-20T07:08:16.125Z,5.22
2023-04-20T07:10:43.581Z,8.38
2023-04-20T07:13:10.896Z,3.15
2023-04-20T07:15:38.225Z,3.28
2023-04-20T07:18:05.726Z,2.30
2023-04-20T07:20:34.270Z,2.85
2023-04-20T07:23:01.362Z,4.82
2023-04-20T07:25:28.639Z,11.98
2023-04-20T07:27:55.892Z,2.63
2023-04-20T07:30:28.955Z,5.07
2023-04-20T07:32:56.172Z,2.80
2023-04-20T07:35:23.816Z,3.03
2023-04-20T07:37:51.248Z,5.00
2023-04-20T07:40:18.439Z,4.88
2023-04-20T07:42:46.178Z,3.13
2023-04-20T07:45:13.897Z,2.95
2023-04-20T07:47:41.309Z,4.20
2023-04-20T07:50:08.801Z,5.32
2023-04-20T07:52:36.041Z,3.17
2023-04-20T07:55:05.360Z,3.53
2023-04-20T07:57:32.834Z,2.73
2023-04-20T08:00:00.073Z,3.47
2023-04-20T08:02:27.443Z,3.10
2023-04-20T08:04:55.295Z,2.70
2023-04-20T08:07:24.285Z,3.45
2023-04-20T08:09:51.526Z,2.80
2023-04-20T08:12:18.683Z,3.30
2023-04-20T08:14:45.891Z,2.72
2023-04-20T08:17:13.025Z,4.65
2023-04-20T08:19:43.696Z,4.63
2023-04-20T08:22:12.575Z,5.90
2023-04-20T08:24:39.801Z,2.65
2023-04-20T08:27:09.197Z,2.53
2023-04-20T08:29:36.888Z,2.72
2023-04-20T08:32:04.614Z,2.88
2023-04-20T08:34:31.753Z,6.20
2023-04-20T08:36:58.951Z,7.05
2023-04-20T08:39:26.689Z,4.35
2023-04-20T08:41:55.923Z,3.15
2023-04-20T08:44:23.701Z,2.90
2023-04-20T08:46:51.885Z,4.53
2023-04-20T08:49:20.383Z,3.83
2023-04-20T08:51:48.346Z,2.78
2023-04-20T08:54:16.083Z,2.65
2023-04-20T08:56:46.176Z,3.15
2023-04-20T08:59:14.661Z,3.10
2023-04-20T09:01:43.229Z,4.88
2023-04-20T09:04:27.056Z,3.60
2023-04-20T09:06:56.350Z,4.10
2023-04-20T09:09:25.791Z,5.22
2023-04-20T09:12:04.897Z,3.10
2023-04-20T09:14:43.169Z,4.00
2023-04-20T09:17:14.594Z,4.43
2023-04-20T09:19:45.113Z,3.58
2023-04-20T09:22:13.280Z,3.85
2023-04-20T09:24:42.909Z,3.40
2023-04-20T09:27:18.761Z,3.22
2023-04-20T09:29:58.056Z,4.15
2023-04-20T09:32:26.709Z,5.53
2023-04-20T09:34:54.191Z,2.85
2023-04-20T09:37:23.080Z,3.80
2023-04-20T09:39:50.814Z,2.97
2023-04-20T09:42:18.709Z,6.82
2023-04-20T09:44:46.225Z,2.95
2023-04-20T09:47:19.097Z,3.03
2023-04-20T09:49:47.584Z,5.07
2023-04-20T09:52:18.799Z,3.08
2023-04-20T09:54:46.620Z,2.90
2023-04-20T09:57:14.830Z,4.53
2023-04-20T09:59:44.087Z,3.28
2023-04-20T10:02:12.846Z,3.07
2023-04-20T10:04:53.714Z,2.95
2023-04-20T10:07:29.054Z,5.80
2023-04-20T10:10:15.012Z,4.07
2023-04-20T10:12:51.689Z,3.00
2023-04-20T10:15:19.575Z,4.05
2023-04-20T10:17:46.881Z,4.88
2023-04-20T10:20:26.472Z,3.80
2023-04-20T10:23:08.986Z,7.15
2023-04-20T10:25:36.655Z,5.90
2023-04-20T10:28:06.468Z,3.50
2023-04-20T10:30:34.493Z,10.98
2023-04-20T10:33:13.076Z,5.15
2023-04-20T10:35:55.067Z,4.78
2023-04-20T10:38:33.363Z,4.68
2023-04-20T10:41:11.721Z,4.30
2023-04-20T10:43:43.424Z,3.28
2023-04-20T10:46:23.079Z,5.68
2023-04-20T10:48:53.242Z,7.53
2023-04-20T10:53:58.890Z,5.47
2023-04-20T10:56:27.337Z,6.38
2023-04-20T10:58:54.752Z,5.20
2023-04-20T11:01:22.137Z,7.15
2023-04-20T11:03:54.157Z,17.88
2023-04-20T11:06:23.272Z,6.68
2023-04-20T11:08:50.506Z,5.43
2023-04-20T11:11:27.830Z,4.10
2023-04-20T11:14:13.270Z,6.55
2023-04-20T11:16:52.858Z,11.15
2023-04-20T11:19:25.548Z,8.80
2023-04-20T11:21:53.234Z,86.20
2023-04-20T11:24:23.264Z,125.47
2023-04-20T11:26:51.304Z,43.47
2023-04-20T11:29:39.476Z,25.92
2023-04-20T11:32:08.990Z,13.38
2023-04-20T11:34:39.786Z,23.50
2023-04-20T11:37:10.327Z,13.88
2023-04-20T11:39:38.377Z,13.35
2023-04-20T11:42:06.369Z,23.02
2023-04-20T11:44:34.572Z,19.38
2023-04-20T11:47:02.113Z,16.13
2023-04-20T11:49:29.821Z,6.10
2023-04-20T11:51:56.987Z,18.27
2023-04-20T11:54:24.482Z,8.65
2023-04-20T11:56:52.669Z,7.82
2023-04-20T11:59:21.111Z,8.68
2023-04-20T12:01:48.660Z,10.50
2023-04-20T12:04:16.489Z,8.18
2023-04-20T12:06:44.363Z,7.93
2023-04-20T12:09:11.668Z,10.07
2023-04-20T12:11:38.743Z,9.05
2023-04-20T12:14:05.973Z,9.57
2023-04-20T12:16:33.185Z,3.55
2023-04-20T12:19:00.416Z,3.83
2023-04-20T12:21:27.959Z,3.92
2023-04-20T12:23:55.285Z,16.25
2023-04-20T12:26:27.039Z,6.15
2023-04-20T12:29:02.527Z,4.20
2023-04-20T12:31:30.521Z,4.25
2023-04-20T12:33:57.805Z,5.10
2023-04-20T12:36:24.970Z,5.30
2023-04-20T12:38:52.766Z,7.55
2023-04-20T12:41:20.417Z,4.53
2023-04-20T12:43:48.943Z,4.60
2023-04-20T12:46:16.085Z,4.15
2023-04-20T12:48:45.372Z,5.88
2023-04-20T12:51:13.374Z,5.00
2023-04-20T12:53:40.658Z,6.38
2023-04-20T12:56:08.924Z,10.73
2023-04-20T12:58:36.124Z,4.85
2023-04-20T13:01:04.039Z,11.48
2023-04-20T13:03:31.709Z,4.50
2023-04-20T13:06:00.322Z,8.25
2023-04-20T13:08:28.324Z,4.22
2023-04-20T13:10:55.495Z,4.85
2023-04-20T13:13:22.633Z,9.40
2023-04-20T13:15:49.855Z,5.20
2023-04-20T13:18:17.358Z,3.22
2023-04-20T13:20:45.687Z,4.20
2023-04-20T13:23:12.773Z,3.88
2023-04-20T13:25:40.961Z,4.53
2023-04-20T13:28:08.254Z,8.93
2023-04-20T13:30:35.430Z,5.25
2023-04-20T13:33:02.856Z,6.90
2023-04-20T13:35:30.788Z,9.60
2023-04-20T13:37:58.071Z,3.60
2023-04-20T13:40:26.173Z,3.35
2023-04-20T13:42:53.372Z,3.85
2023-04-20T13:45:21.241Z,5.13
2023-04-20T13:47:48.481Z,4.25
2023-04-20T13:50:15.840Z,6.78
2023-04-20T13:52:43.097Z,3.20
2023-04-20T13:55:10.866Z,4.15
2023-04-20T13:57:38.452Z,4.95
2023-04-20T14:00:07.459Z,2.88
2023-04-20T14:02:34.819Z,3.28
2023-04-20T14:05:04.168Z,4.10
2023-04-20T14:07:32.302Z,5.03
2023-04-20T14:10:00.179Z,3.20
2023-04-20T14:12:28.663Z,3.17
2023-04-20T14:14:59.504Z,4.32
2023-04-20T14:17:31.000Z,2.70
2023-04-20T14:20:02.025Z,3.75
2023-04-20T14:22:34.503Z,5.45
2023-04-20T14:25:01.901Z,5.18
2023-04-20T14:27:29.009Z,5.97
2023-04-20T14:29:56.721Z,2.90
2023-04-20T14:32:23.827Z,4.53
2023-04-20T14:34:51.222Z,5.05
2023-04-20T14:37:18.347Z,3.05
2023-04-20T14:39:45.818Z,5.72
2023-04-20T14:42:14.341Z,9.60
2023-04-20T14:44:41.419Z,4.47
2023-04-20T14:47:08.564Z,4.90
2023-04-20T14:49:35.902Z,6.50
2023-04-20T14:52:03.334Z,3.92
2023-04-20T14:54:30.539Z,6.53
2023-04-20T14:56:58.413Z,5.35
2023-04-20T14:59:27.179Z,4.95
2023-04-20T15:02:02.199Z,13.77
2023-04-20T15:04:31.575Z,3.63
2023-04-20T15:06:58.982Z,7.13
2023-04-20T15:09:26.442Z,6.72
2023-04-20T15:11:53.579Z,7.30
2023-04-20T15:14:21.351Z,6.60
2023-04-20T15:16:48.756Z,5.90
2023-04-20T15:19:15.931Z,6.07
2023-04-20T15:21:44.564Z,6.00
2023-04-20T15:24:11.869Z,6.13
2023-04-20T15:26:39.708Z,8.13
2023-04-20T15:29:06.812Z,6.75
2023-04-20T15:31:33.970Z,7.53
2023-04-20T15:34:01.267Z,8.65
2023-04-20T15:36:28.831Z,16.77
2023-04-20T15:38:57.830Z,10.45
2023-04-20T15:41:25.417Z,10.63
2023-04-20T15:43:52.615Z,9.43
2023-04-20T15:46:23.485Z,8.43
2023-04-20T15:48:50.711Z,8.23
2023-04-20T15:51:20.237Z,5.28
2023-04-20T15:53:51.408Z,4.63
2023-04-20T15:56:18.945Z,4.95
2023-04-20T15:58:46.509Z,6.32
2023-04-20T16:01:13.615Z,9.32
2023-04-20T16:03:41.950Z,6.30
2023-04-20T16:08:38.080Z,4.75
2023-04-20T16:11:06.455Z,6.00
2023-04-20T16:13:33.583Z,5.20
2023-04-20T16:16:00.813Z,4.50
2023-04-20T16:18:28.028Z,6.88
2023-04-20T16:20:55.160Z,4.07
2023-04-20T16:23:22.360Z,7.38
2023-04-20T16:25:49.448Z,5.43
2023-04-20T16:28:16.715Z,6.45
2023-04-20T16:30:44.742Z,5.53
2023-04-20T16:33:13.019Z,5.68
2023-04-20T16:35:41.335Z,4.30
2023-04-20T16:38:10.523Z,4.28
2023-04-20T16:40:38.041Z,8.85
2023-04-20T16:43:05.254Z,6.35
2023-04-20T16:45:33.889Z,5.30
2023-04-20T16:48:01.097Z,7.22
2023-04-20T16:50:28.521Z,3.10
2023-04-20T16:52:55.718Z,4.00
2023-04-20T16:55:22.975Z,3.75
2023-04-20T16:57:50.225Z,2.50
2023-04-20T17:00:17.887Z,5.03
2023-04-20T17:02:45.260Z,3.60
2023-04-20T17:05:12.534Z,5.20
2023-04-20T17:07:39.768Z,3.78
2023-04-20T17:10:07.407Z,4.05
2023-04-20T17:12:34.460Z,5.15
2023-04-20T17:15:01.665Z,4.28
2023-04-20T17:17:29.032Z,2.40
2023-04-20T17:19:56.300Z,3.55
2023-04-20T17:22:25.894Z,2.28
2023-04-20T17:24:54.219Z,5.50
2023-04-20T17:27:24.560Z,6.25
2023-04-20T17:29:51.948Z,2.80
2023-04-20T17:32:19.115Z,4.38
2023-04-20T17:34:48.666Z,4.40
2023-04-20T17:37:16.079Z,2.53
2023-04-20T17:39:43.517Z,3.90
2023-04-20T17:42:11.069Z,2.90
2023-04-20T17:44:38.663Z,4.72
2023-04-20T17:47:07.280Z,4.38
2023-04-20T17:49:35.061Z,5.28
2023-04-20T17:52:02.982Z,2.60
2023-04-20T17:54:30.137Z,2.47
2023-04-20T17:56:58.310Z,2.90
2023-04-20T17:59:26.043Z,3.42
2023-04-20T18:01:53.669Z,2.97
2023-04-20T18:04:21.469Z,4.22
2023-04-20T18:06:49.610Z,3.05
2023-04-20T18:09:18.088Z,2.22
2023-04-20T18:11:45.283Z,3.03
2023-04-20T18:14:12.449Z,2.33
2023-04-20T18:16:39.664Z,4.18
2023-04-20T18:19:06.862Z,2.97
2023-04-20T18:21:34.879Z,6.18
2023-04-20T18:24:02.148Z,2.55
2023-04-20T18:26:29.325Z,4.18
2023-04-20T18:28:56.448Z,3.78
2023-04-20T18:31:23.677Z,6.63
2023-04-20T18:33:50.905Z,2.25
2023-04-20T18:36:18.092Z,2.40
2023-04-20T18:38:45.222Z,3.78
2023-04-20T18:41:12.621Z,2.88
2023-04-20T18:43:40.004Z,2.42
2023-04-20T18:46:07.309Z,3.70
2023-04-20T18:48:35.951Z,2.65
2023-04-20T18:51:03.122Z,2.40
2023-04-20T18:53:31.558Z,2.03
2023-04-20T18:56:02.298Z,5.25
2023-04-20T18:58:30.653Z,3.72
2023-04-20T19:00:58.000Z,2.65
2023-04-20T19:03:26.117Z,2.17
2023-04-20T19:05:53.356Z,2.50
2023-04-20T19:08:20.606Z,2.67
2023-04-20T19:10:47.737Z,3.22
2023-04-20T19:13:17.829Z,3.08
2023-04-20T19:15:45.683Z,3.75
2023-04-20T19:18:12.870Z,2.78
2023-04-20T19:20:41.164Z,3.75
2023-04-20T19:23:08.269Z,4.38
2023-04-20T19:25:37.220Z,3.00
2023-04-20T19:28:04.789Z,2.30
2023-04-20T19:30:31.870Z,3.88
2023-04-20T19:33:02.481Z,2.75
2023-04-20T19:35:29.624Z,2.88
2023-04-20T19:37:56.807Z,3.75
2023-04-20T19:40:24.967Z,2.28
2023-04-20T19:42:52.130Z,4.55
2023-04-20T19:45:19.437Z,2.30
2023-04-20T19:47:46.799Z,2.35
2023-04-20T19:50:14.491Z,2.70
2023-04-20T19:52:41.631Z,3.22
2023-04-20T19:55:09.500Z,2.28
2023-04-20T19:57:36.624Z,2.50
2023-04-20T20:00:05.473Z,2.20
2023-04-20T20:02:33.108Z,5.15
2023-04-20T20:05:00.322Z,2.15
2023-04-20T20:07:28.243Z,2.53
2023-04-20T20:09:55.613Z,4.72
2023-04-20T20:12:22.724Z,2.47
2023-04-20T20:14:49.843Z,2.50
2023-04-20T20:17:17.052Z,4.10
2023-04-20T20:19:45.011Z,2.60
2023-04-20T20:22:12.298Z,4.53
2023-04-20T20:24:39.428Z,2.92
2023-04-20T20:27:06.589Z,2.95
2023-04-20T20:29:33.720Z,2.85
2023-04-20T20:32:00.909Z,2.58
2023-04-20T20:34:27.990Z,3.03
2023-04-20T20:36:55.063Z,4.30
2023-04-20T20:39:23.296Z,3.90
2023-04-20T20:41:51.407Z,3.75
2023-04-20T20:44:18.862Z,2.65
2023-04-20T20:46:46.650Z,4.03
2023-04-20T20:49:13.835Z,3.03
2023-04-20T20:51:41.629Z,2.20
2023-04-20T20:54:08.879Z,3.45
2023-04-20T20:56:35.967Z,3.15
2023-04-20T20:59:03.094Z,3.10
2023-04-20T21:01:30.278Z,3.90
2023-04-20T21:03:57.494Z,3.28
2023-04-20T21:06:24.772Z,2.90
2023-04-20T21:08:51.956Z,2.97
2023-04-20T21:11:19.225Z,3.65
2023-04-20T21:13:46.347Z,3.38
2023-04-20T21:16:13.597Z,3.33
2023-04-20T21:18:40.771Z,4.05
2023-04-20T21:21:13.034Z,5.55
2023-04-20T21:23:40.349Z,2.75
2023-04-20T21:26:07.448Z,3.80
2023-04-20T21:28:34.544Z,3.20
2023-04-20T21:31:01.681Z,3.80
2023-04-20T21:33:28.940Z,3.42
2023-04-20T21:35:58.361Z,3.67
2023-04-20T21:38:26.159Z,3.13
2023-04-20T21:40:53.413Z,4.90
2023-04-20T21:43:20.645Z,3.60
2023-04-20T21:45:47.745Z,3.53
2023-04-20T21:48:14.952Z,4.18
2023-04-20T21:50:42.174Z,4.15
2023-04-20T21:53:09.447Z,3.72
2023-04-20T21:55:36.601Z,3.63
2023-04-20T21:58:03.733Z,3.30
2023-04-20T22:00:30.903Z,4.63
2023-04-20T22:02:58.074Z,5.38
2023-04-20T22:05:26.295Z,4.07
2023-04-20T22:07:53.466Z,4.53
2023-04-20T22:10:20.635Z,5.68
2023-04-20T22:12:47.731Z,4.05
2023-04-20T22:15:15.290Z,4.05
2023-04-20T22:17:45.579Z,5.45
2023-04-20T22:22:40.621Z,4.25
2023-04-20T22:25:08.724Z,4.03
2023-04-20T22:27:37.814Z,4.68
2023-04-20T22:30:06.486Z,4.00
2023-04-20T22:32:33.695Z,4.43
2023-04-20T22:35:01.384Z,4.30
2023-04-20T22:37:28.521Z,4.80
2023-04-20T22:39:55.643Z,5.65
2023-04-20T22:42:22.825Z,4.05
2023-04-20T22:44:49.948Z,4.70
2023-04-20T22:47:17.046Z,4.18
2023-04-20T22:49:44.185Z,3.75
2023-04-20T22:52:12.659Z,4.13
2023-04-20T22:54:40.502Z,5.68
2023-04-20T22:57:07.596Z,6.13
2023-04-20T22:59:34.737Z,4.38
2023-04-20T23:02:02.006Z,4.80
2023-04-20T23:04:29.890Z,4.50
2023-04-20T23:06:57.875Z,4.28
2023-04-20T23:09:24.999Z,4.95
2023-04-20T23:11:53.984Z,3.72
2023-04-20T23:14:22.674Z,4.55
2023-04-20T23:16:50.291Z,4.32
2023-04-20T23:19:17.811Z,5.07
2023-04-20T23:21:45.138Z,5.25
2023-04-20T23:24:12.296Z,4.30
2023-04-20T23:26:39.401Z,5.13
2023-04-20T23:29:06.555Z,4.50
2023-04-20T23:31:33.696Z,4.63
2023-04-20T23:34:00.939Z,4.15
2023-04-20T23:36:28.089Z,5.35
2023-04-20T23:38:55.248Z,4.28
2023-04-20T23:41:22.383Z,5.07
2023-04-20T23:43:49.510Z,4.32
2023-04-20T23:46:17.339Z,4.05
2023-04-20T23:48:44.517Z,4.85
2023-04-20T23:51:11.821Z,4.15
2023-04-20T23:53:39.418Z,4.80
2023-04-20T23:56:07.044Z,5.82
2023-04-20T23:58:34.200Z,4.05
